sensor_id;sensor_type;location;lat;lon;timestamp;pressure;altitude;pressure_sealevel;temperature;humidity
5777;BME280;2914;42.668;23.346;2023-03-04T00:02:28;94525.84;;;8.21;100.00
5777;BME280;2914;42.668;23.346;2023-03-04T00:04:57;94527.29;;;8.20;100.00
5777;BME280;2914;42.668;23.346;2023-03-04T00:07:26;94524.40;;;8.23;100.00
5777;BME280;2914;42.668;23.346;2023-03-04T00:09:55;94528.24;;;8.24;100.00
5777;BME280;2914;42.668;23.346;2023-03-04T00:12:24;94528.24;;;8.24;100.00
5777;BME280;2914;42.668;23.346;2023-03-04T00:14:53;94518.02;;;8.31;100.00
5777;BME280;2914;42.668;23.346;2023-03-04T00:17:22;94518.11;;;8.35;100.00
5777;BME280;2914;42.668;23.346;2023-03-04T00:19:51;94518.11;;;8.35;100.00
5777;BME280;2914;42.668;23.346;2023-03-04T00:24:58;94512.56;;;8.28;100.00
5777;BME280;2914;42.668;23.346;2023-03-04T00:27:27;94512.56;;;8.28;100.00
5777;BME280;2914;42.668;23.346;2023-03-04T00:29:57;94511.88;;;8.21;100.00
5777;BME280;2914;42.668;23.346;2023-03-04T00:32:26;94508.86;;;8.25;100.00
5777;BME280;2914;42.668;23.346;2023-03-04T00:34:55;94504.83;;;8.21;100.00
5777;BME280;2914;42.668;23.346;2023-03-04T00:37:24;94503.83;;;8.28;100.00
5777;BME280;2914;42.668;23.346;2023-03-04T00:39:53;94501.56;;;8.29;100.00
5777;BME280;2914;42.668;23.346;2023-03-04T00:42:22;94499.63;;;8.31;100.00
5777;BME280;2914;42.668;23.346;2023-03-04T00:44:51;94494.84;;;8.15;100.00
5777;BME280;2914;42.668;23.346;2023-03-04T00:47:20;94509.56;;;8.12;100.00
5777;BME280;2914;42.668;23.346;2023-03-04T00:49:49;94507.72;;;8.18;100.00
5777;BME280;2914;42.668;23.346;2023-03-04T00:52:18;94501.23;;;8.22;100.00
5777;BME280;2914;42.668;23.346;2023-03-04T00:54:47;94502.38;;;8.29;100.00
5777;BME280;2914;42.668;23.346;2023-03-04T00:57:16;94495.31;;;8.36;100.00
5777;BME280;2914;42.668;23.346;2023-03-04T00:59:45;94500.56;;;8.36;100.00
5777;BME280;2914;42.668;23.346;2023-03-04T01:02:14;94499.75;;;8.29;100.00
5777;BME280;2914;42.668;23.346;2023-03-04T01:04:44;94497.35;;;8.32;100.00
5777;BME280;2914;42.668;23.346;2023-03-04T01:07:13;94496.98;;;8.37;100.00
5777;BME280;2914;42.668;23.346;2023-03-04T01:09:42;94503.88;;;8.38;100.00
5777;BME280;2914;42.668;23.346;2023-03-04T01:12:11;94500.39;;;8.43;100.00
5777;BME280;2914;42.668;23.346;2023-03-04T01:14:40;94499.08;;;8.43;100.00
5777;BME280;2914;42.668;23.346;2023-03-04T01:17:09;94490.52;;;8.35;100.00
5777;BME280;2914;42.668;23.346;2023-03-04T01:19:38;94491.27;;;8.31;100.00
5777;BME280;2914;42.668;23.346;2023-03-04T01:22:08;94491.27;;;8.31;100.00
5777;BME280;2914;42.668;23.346;2023-03-04T01:24:37;94487.28;;;8.22;100.00
5777;BME280;2914;42.668;23.346;2023-03-04T01:27:06;94486.16;;;8.30;100.00
5777;BME280;2914;42.668;23.346;2023-03-04T01:29:35;94482.08;;;8.31;100.00
5777;BME280;2914;42.668;23.346;2023-03-04T01:32:06;94482.08;;;8.31;100.00
5777;BME280;2914;42.668;23.346;2023-03-04T01:34:35;94476.69;;;8.33;100.00
5777;BME280;2914;42.668;23.346;2023-03-04T01:37:04;94474.64;;;8.37;100.00
5777;BME280;2914;42.668;23.346;2023-03-04T01:39:34;94477.83;;;8.40;100.00
5777;BME280;2914;42.668;23.346;2023-03-04T01:42:03;94478.67;;;8.41;100.00
5777;BME280;2914;42.668;23.346;2023-03-04T01:44:32;94467.17;;;8.42;100.00
5777;BME280;2914;42.668;23.346;2023-03-04T01:47:01;94464.08;;;8.42;99.73
5777;BME280;2914;42.668;23.346;2023-03-04T01:49:30;94458.02;;;8.36;99.36
5777;BME280;2914;42.668;23.346;2023-03-04T01:51:59;94461.37;;;8.38;99.06
5777;BME280;2914;42.668;23.346;2023-03-04T01:54:28;94458.47;;;8.41;98.99
5777;BME280;2914;42.668;23.346;2023-03-04T01:56:58;94469.94;;;8.40;99.04
5777;BME280;2914;42.668;23.346;2023-03-04T01:59:31;94445.02;;;8.35;98.40
5777;BME280;2914;42.668;23.346;2023-03-04T02:02:00;94458.25;;;8.39;98.14
5777;BME280;2914;42.668;23.346;2023-03-04T02:04:31;94457.56;;;8.37;98.13
5777;BME280;2914;42.668;23.346;2023-03-04T02:07:02;94456.75;;;8.30;98.20
5777;BME280;2914;42.668;23.346;2023-03-04T02:09:32;94456.75;;;8.30;98.20
5777;BME280;2914;42.668;23.346;2023-03-04T02:12:02;94453.90;;;8.28;98.21
5777;BME280;2914;42.668;23.346;2023-03-04T02:14:32;94460.20;;;8.31;97.78
5777;BME280;2914;42.668;23.346;2023-03-04T02:17:01;94455.62;;;8.23;98.20
5777;BME280;2914;42.668;23.346;2023-03-04T02:22:21;94448.46;;;8.20;99.17
5777;BME280;2914;42.668;23.346;2023-03-04T02:27:36;94444.44;;;8.52;100.00
5777;BME280;2914;42.668;23.346;2023-03-04T02:30:08;94449.88;;;8.45;100.00
5777;BME280;2914;42.668;23.346;2023-03-04T02:32:37;94451.77;;;8.43;100.00
5777;BME280;2914;42.668;23.346;2023-03-04T02:35:13;94447.46;;;8.42;99.19
5777;BME280;2914;42.668;23.346;2023-03-04T02:37:44;94455.58;;;8.29;98.72
5777;BME280;2914;42.668;23.346;2023-03-04T02:40:18;94452.67;;;8.32;98.37
5777;BME280;2914;42.668;23.346;2023-03-04T02:42:46;94446.51;;;8.27;98.35
5777;BME280;2914;42.668;23.346;2023-03-04T02:45:38;94440.30;;;8.28;98.05
5777;BME280;2914;42.668;23.346;2023-03-04T02:48:08;94442.34;;;8.25;98.13
5777;BME280;2914;42.668;23.346;2023-03-04T02:50:41;94437.69;;;8.23;97.70
5777;BME280;2914;42.668;23.346;2023-03-04T02:53:11;94433.55;;;8.20;97.67
5777;BME280;2914;42.668;23.346;2023-03-04T02:55:40;94438.95;;;8.13;97.84
5777;BME280;2914;42.668;23.346;2023-03-04T02:58:10;94439.84;;;8.08;98.11
5777;BME280;2914;42.668;23.346;2023-03-04T03:00:40;94438.08;;;8.03;98.25
5777;BME280;2914;42.668;23.346;2023-03-04T03:03:10;94438.34;;;8.00;98.66
5777;BME280;2914;42.668;23.346;2023-03-04T03:05:39;94438.80;;;7.99;98.29
5777;BME280;2914;42.668;23.346;2023-03-04T03:08:08;94444.45;;;7.94;98.32
5777;BME280;2914;42.668;23.346;2023-03-04T03:10:37;94443.41;;;7.91;98.35
5777;BME280;2914;42.668;23.346;2023-03-04T03:13:07;94443.22;;;7.83;98.62
5777;BME280;2914;42.668;23.346;2023-03-04T03:15:36;94441.45;;;7.78;98.98
5777;BME280;2914;42.668;23.346;2023-03-04T03:20:45;94442.86;;;7.82;98.70
5777;BME280;2914;42.668;23.346;2023-03-04T03:23:14;94442.08;;;7.70;99.11
5777;BME280;2914;42.668;23.346;2023-03-04T03:25:44;94444.34;;;7.75;99.02
5777;BME280;2914;42.668;23.346;2023-03-04T03:28:13;94434.06;;;7.72;99.00
5777;BME280;2914;42.668;23.346;2023-03-04T03:30:42;94448.87;;;7.73;98.98
5777;BME280;2914;42.668;23.346;2023-03-04T03:33:11;94439.94;;;7.70;99.35
5777;BME280;2914;42.668;23.346;2023-03-04T03:35:40;94440.98;;;7.73;99.25
5777;BME280;2914;42.668;23.346;2023-03-04T03:38:09;94436.09;;;7.74;99.16
5777;BME280;2914;42.668;23.346;2023-03-04T03:40:38;94434.56;;;7.71;98.94
5777;BME280;2914;42.668;23.346;2023-03-04T03:43:07;94430.39;;;7.69;98.93
5777;BME280;2914;42.668;23.346;2023-03-04T03:45:37;94412.21;;;7.56;99.12
5777;BME280;2914;42.668;23.346;2023-03-04T03:48:06;94425.27;;;7.67;99.40
5777;BME280;2914;42.668;23.346;2023-03-04T03:50:35;94424.78;;;7.68;99.78
5777;BME280;2914;42.668;23.346;2023-03-04T03:53:05;94426.81;;;7.70;100.00
5777;BME280;2914;42.668;23.346;2023-03-04T03:55:35;94421.03;;;7.76;100.00
5777;BME280;2914;42.668;23.346;2023-03-04T03:58:04;94424.61;;;7.80;99.21
5777;BME280;2914;42.668;23.346;2023-03-04T04:00:33;94424.64;;;7.75;100.00
5777;BME280;2914;42.668;23.346;2023-03-04T04:03:02;94417.91;;;7.82;98.77
5777;BME280;2914;42.668;23.346;2023-03-04T04:05:31;94417.42;;;7.83;97.85
5777;BME280;2914;42.668;23.346;2023-03-04T04:08:00;94423.98;;;7.83;97.47
5777;BME280;2914;42.668;23.346;2023-03-04T04:10:29;94418.08;;;7.75;97.03
5777;BME280;2914;42.668;23.346;2023-03-04T04:12:58;94416.31;;;7.70;97.17
5777;BME280;2914;42.668;23.346;2023-03-04T04:15:28;94417.03;;;7.66;97.77
5777;BME280;2914;42.668;23.346;2023-03-04T04:17:57;94414.18;;;7.63;98.57
5777;BME280;2914;42.668;23.346;2023-03-04T04:20:26;94409.81;;;7.58;98.28
5777;BME280;2914;42.668;23.346;2023-03-04T04:22:55;94410.64;;;7.59;98.83
5777;BME280;2914;42.668;23.346;2023-03-04T04:25:24;94414.70;;;7.57;98.76
5777;BME280;2914;42.668;23.346;2023-03-04T04:27:54;94415.66;;;7.56;98.32
5777;BME280;2914;42.668;23.346;2023-03-04T04:30:23;94416.18;;;7.50;98.76
5777;BME280;2914;42.668;23.346;2023-03-04T04:32:52;94411.88;;;7.49;98.73
5777;BME280;2914;42.668;23.346;2023-03-04T04:37:58;94411.03;;;7.54;98.76
5777;BME280;2914;42.668;23.346;2023-03-04T04:43:10;94416.63;;;7.28;99.70
5777;BME280;2914;42.668;23.346;2023-03-04T04:45:40;94409.59;;;7.23;100.00
5777;BME280;2914;42.668;23.346;2023-03-04T04:48:09;94415.55;;;7.31;99.69
5777;BME280;2914;42.668;23.346;2023-03-04T04:50:38;94410.86;;;7.35;99.40
5777;BME280;2914;42.668;23.346;2023-03-04T04:53:07;94412.53;;;7.36;98.81
5777;BME280;2914;42.668;23.346;2023-03-04T04:55:36;94410.53;;;7.34;98.83
5777;BME280;2914;42.668;23.346;2023-03-04T04:58:06;94422.41;;;7.11;100.00
5777;BME280;2914;42.668;23.346;2023-03-04T05:00:35;94419.29;;;7.11;100.00
5777;BME280;2914;42.668;23.346;2023-03-04T05:03:04;94421.23;;;7.04;100.00
5777;BME280;2914;42.668;23.346;2023-03-04T05:05:33;94416.26;;;6.89;100.00
5777;BME280;2914;42.668;23.346;2023-03-04T05:08:02;94422.01;;;6.83;100.00
5777;BME280;2914;42.668;23.346;2023-03-04T05:13:14;94436.62;;;7.03;100.00
5777;BME280;2914;42.668;23.346;2023-03-04T05:15:43;94440.07;;;7.09;100.00
5777;BME280;2914;42.668;23.346;2023-03-04T05:18:12;94440.77;;;7.11;100.00
5777;BME280;2914;42.668;23.346;2023-03-04T05:20:41;94436.24;;;7.13;100.00
5777;BME280;2914;42.668;23.346;2023-03-04T05:23:10;94437.76;;;7.16;100.00
5777;BME280;2914;42.668;23.346;2023-03-04T05:28:22;94445.37;;;7.24;99.96
5777;BME280;2914;42.668;23.346;2023-03-04T05:30:51;94441.23;;;7.16;100.00
5777;BME280;2914;42.668;23.346;2023-03-04T05:33:21;94451.11;;;7.18;100.00
5777;BME280;2914;42.668;23.346;2023-03-04T05:35:50;94454.56;;;7.24;100.00
5777;BME280;2914;42.668;23.346;2023-03-04T05:38:20;94456.98;;;7.43;100.00
5777;BME280;2914;42.668;23.346;2023-03-04T05:43:38;94453.75;;;7.51;98.91
5777;BME280;2914;42.668;23.346;2023-03-04T05:46:11;94458.53;;;7.45;98.78
5777;BME280;2914;42.668;23.346;2023-03-04T05:48:41;94462.11;;;7.44;99.45
5777;BME280;2914;42.668;23.346;2023-03-04T05:51:11;94466.05;;;7.44;99.81
5777;BME280;2914;42.668;23.346;2023-03-04T05:53:41;94456.16;;;7.42;99.58
5777;BME280;2914;42.668;23.346;2023-03-04T05:56:13;94459.81;;;7.24;100.00
5777;BME280;2914;42.668;23.346;2023-03-04T05:58:42;94459.32;;;7.25;100.00
5777;BME280;2914;42.668;23.346;2023-03-04T06:01:13;94462.13;;;7.39;100.00
5777;BME280;2914;42.668;23.346;2023-03-04T06:03:42;94463.55;;;7.43;99.96
5777;BME280;2914;42.668;23.346;2023-03-04T06:06:12;94468.31;;;7.49;100.00
5777;BME280;2914;42.668;23.346;2023-03-04T06:08:41;94470.09;;;7.54;99.90
5777;BME280;2914;42.668;23.346;2023-03-04T06:11:10;94472.81;;;7.53;99.89
5777;BME280;2914;42.668;23.346;2023-03-04T06:16:15;94471.58;;;7.68;99.96
5777;BME280;2914;42.668;23.346;2023-03-04T06:21:27;94471.34;;;7.66;100.00
5777;BME280;2914;42.668;23.346;2023-03-04T06:23:57;94470.39;;;7.61;100.00
5777;BME280;2914;42.668;23.346;2023-03-04T06:26:26;94472.79;;;7.64;100.00
5777;BME280;2914;42.668;23.346;2023-03-04T06:28:55;94477.06;;;7.71;100.00
5777;BME280;2914;42.668;23.346;2023-03-04T06:31:24;94472.91;;;7.57;100.00
5777;BME280;2914;42.668;23.346;2023-03-04T06:33:53;94474.30;;;7.72;100.00
5777;BME280;2914;42.668;23.346;2023-03-04T06:36:22;94477.48;;;7.76;100.00
5777;BME280;2914;42.668;23.346;2023-03-04T06:38:51;94479.75;;;7.80;100.00
5777;BME280;2914;42.668;23.346;2023-03-04T06:41:21;94477.45;;;7.81;100.00
5777;BME280;2914;42.668;23.346;2023-03-04T06:43:52;94480.77;;;7.89;100.00
5777;BME280;2914;42.668;23.346;2023-03-04T06:46:22;94479.92;;;7.94;100.00
5777;BME280;2914;42.668;23.346;2023-03-04T06:48:51;94483.10;;;7.98;100.00
5777;BME280;2914;42.668;23.346;2023-03-04T06:51:20;94489.45;;;8.17;100.00
5777;BME280;2914;42.668;23.346;2023-03-04T06:53:49;94490.64;;;8.18;100.00
5777;BME280;2914;42.668;23.346;2023-03-04T06:56:18;94490.77;;;8.17;100.00
5777;BME280;2914;42.668;23.346;2023-03-04T06:58:47;94490.80;;;8.11;100.00
5777;BME280;2914;42.668;23.346;2023-03-04T07:01:19;94492.91;;;8.17;100.00
5777;BME280;2914;42.668;23.346;2023-03-04T07:06:28;94496.16;;;8.15;99.77
5777;BME280;2914;42.668;23.346;2023-03-04T07:11:41;94494.58;;;8.18;99.75
5777;BME280;2914;42.668;23.346;2023-03-04T07:16:47;94492.78;;;7.97;99.22
5777;BME280;2914;42.668;23.346;2023-03-04T07:21:56;94501.70;;;8.27;100.00
5777;BME280;2914;42.668;23.346;2023-03-04T07:24:25;94504.59;;;8.24;100.00
5777;BME280;2914;42.668;23.346;2023-03-04T07:26:54;94504.69;;;8.23;97.95
5777;BME280;2914;42.668;23.346;2023-03-04T07:29:23;94505.41;;;8.25;96.47
5777;BME280;2914;42.668;23.346;2023-03-04T07:31:52;94515.96;;;8.19;96.04
5777;BME280;2914;42.668;23.346;2023-03-04T07:34:25;94509.26;;;8.21;95.53
5777;BME280;2914;42.668;23.346;2023-03-04T07:36:54;94510.97;;;8.10;95.21
5777;BME280;2914;42.668;23.346;2023-03-04T07:42:07;94508.53;;;8.24;96.34
5777;BME280;2914;42.668;23.346;2023-03-04T07:47:14;94503.87;;;8.22;95.83
5777;BME280;2914;42.668;23.346;2023-03-04T07:50:01;94499.28;;;8.66;100.00
5777;BME280;2914;42.668;23.346;2023-03-04T07:52:32;94495.03;;;9.51;100.00
5777;BME280;2914;42.668;23.346;2023-03-04T07:55:01;94493.52;;;9.97;100.00
5777;BME280;2914;42.668;23.346;2023-03-04T07:57:30;94499.22;;;9.38;100.00
5777;BME280;2914;42.668;23.346;2023-03-04T08:00:00;94498.98;;;9.26;96.78
5777;BME280;2914;42.668;23.346;2023-03-04T08:02:29;94493.70;;;9.16;93.97
5777;BME280;2914;42.668;23.346;2023-03-04T08:07:36;94497.92;;;9.13;91.37
5777;BME280;2914;42.668;23.346;2023-03-04T08:12:50;94495.61;;;8.94;90.79
5777;BME280;2914;42.668;23.346;2023-03-04T08:15:19;94498.17;;;8.85;91.34
5777;BME280;2914;42.668;23.346;2023-03-04T08:17:48;94503.02;;;8.43;92.65
5777;BME280;2914;42.668;23.346;2023-03-04T08:22:56;94495.49;;;8.44;92.90
5777;BME280;2914;42.668;23.346;2023-03-04T08:25:25;94500.60;;;8.51;92.88
5777;BME280;2914;42.668;23.346;2023-03-04T08:27:56;94497.84;;;8.10;94.49
5777;BME280;2914;42.668;23.346;2023-03-04T08:30:29;94497.05;;;7.83;96.37
5777;BME280;2914;42.668;23.346;2023-03-04T08:32:59;94499.55;;;8.06;96.03
5777;BME280;2914;42.668;23.346;2023-03-04T08:35:29;94498.16;;;8.17;95.86
5777;BME280;2914;42.668;23.346;2023-03-04T08:37:59;94493.36;;;8.22;95.39
5777;BME280;2914;42.668;23.346;2023-03-04T08:40:28;94493.36;;;8.22;95.39
5777;BME280;2914;42.668;23.346;2023-03-04T08:42:57;94496.03;;;7.95;97.21
5777;BME280;2914;42.668;23.346;2023-03-04T08:45:27;94488.87;;;8.13;96.81
5777;BME280;2914;42.668;23.346;2023-03-04T08:47:56;94486.43;;;8.21;96.99
5777;BME280;2914;42.668;23.346;2023-03-04T08:50:25;94488.09;;;8.07;97.56
5777;BME280;2914;42.668;23.346;2023-03-04T08:55:33;94477.91;;;8.29;96.80
5777;BME280;2914;42.668;23.346;2023-03-04T08:58:02;94484.44;;;8.35;96.31
5777;BME280;2914;42.668;23.346;2023-03-04T09:00:32;94482.45;;;8.27;96.08
5777;BME280;2914;42.668;23.346;2023-03-04T09:03:01;94479.81;;;8.32;96.30
5777;BME280;2914;42.668;23.346;2023-03-04T09:05:31;94482.95;;;8.42;96.61
5777;BME280;2914;42.668;23.346;2023-03-04T09:08:00;94481.30;;;8.41;95.77
5777;BME280;2914;42.668;23.346;2023-03-04T09:13:12;94474.19;;;8.31;94.72
5777;BME280;2914;42.668;23.346;2023-03-04T09:15:45;94473.02;;;8.30;94.72
5777;BME280;2914;42.668;23.346;2023-03-04T09:18:15;94472.73;;;8.54;100.00
5777;BME280;2914;42.668;23.346;2023-03-04T09:20:45;94464.92;;;9.34;100.00
5777;BME280;2914;42.668;23.346;2023-03-04T09:23:14;94477.80;;;8.92;100.00
5777;BME280;2914;42.668;23.346;2023-03-04T09:25:44;94466.17;;;8.95;95.92
5777;BME280;2914;42.668;23.346;2023-03-04T09:28:16;94462.72;;;8.94;92.86
5777;BME280;2914;42.668;23.346;2023-03-04T09:30:46;94455.52;;;9.71;100.00
5777;BME280;2914;42.668;23.346;2023-03-04T09:33:15;94458.91;;;9.57;100.00
5777;BME280;2914;42.668;23.346;2023-03-04T09:35:44;94454.75;;;9.45;92.26
5777;BME280;2914;42.668;23.346;2023-03-04T09:38:15;94454.75;;;9.45;92.26
5777;BME280;2914;42.668;23.346;2023-03-04T09:40:47;94461.30;;;9.15;90.16
5777;BME280;2914;42.668;23.346;2023-03-04T09:43:21;94456.94;;;8.85;89.19
5777;BME280;2914;42.668;23.346;2023-03-04T09:45:52;94452.05;;;8.55;89.47
5777;BME280;2914;42.668;23.346;2023-03-04T09:48:26;94458.05;;;8.52;90.48
5777;BME280;2914;42.668;23.346;2023-03-04T09:51:05;94458.83;;;8.73;90.74
5777;BME280;2914;42.668;23.346;2023-03-04T09:53:39;94450.64;;;8.82;89.54
5777;BME280;2914;42.668;23.346;2023-03-04T09:56:10;94442.94;;;8.85;86.84
5777;BME280;2914;42.668;23.346;2023-03-04T10:01:25;94445.06;;;9.00;86.89
5777;BME280;2914;42.668;23.346;2023-03-04T10:03:57;94439.45;;;8.99;86.33
5777;BME280;2914;42.668;23.346;2023-03-04T10:06:29;94439.22;;;9.12;85.78
5777;BME280;2914;42.668;23.346;2023-03-04T10:09:01;94439.09;;;9.24;85.29
5777;BME280;2914;42.668;23.346;2023-03-04T10:11:33;94437.17;;;9.00;85.79
5777;BME280;2914;42.668;23.346;2023-03-04T10:14:14;94426.63;;;8.91;87.48
5777;BME280;2914;42.668;23.346;2023-03-04T10:16:44;94427.05;;;8.86;87.33
5777;BME280;2914;42.668;23.346;2023-03-04T10:19:25;94427.05;;;8.86;87.33
5777;BME280;2914;42.668;23.346;2023-03-04T10:21:54;94426.91;;;8.88;87.75
5777;BME280;2914;42.668;23.346;2023-03-04T10:24:26;94416.63;;;8.85;88.30
5777;BME280;2914;42.668;23.346;2023-03-04T10:26:58;94421.89;;;8.85;88.80
5777;BME280;2914;42.668;23.346;2023-03-04T10:29:30;94422.98;;;8.97;87.30
5777;BME280;2914;42.668;23.346;2023-03-04T10:32:00;94420.56;;;9.00;86.65
5777;BME280;2914;42.668;23.346;2023-03-04T10:34:29;94418.38;;;9.15;86.24
5777;BME280;2914;42.668;23.346;2023-03-04T10:37:01;94406.11;;;9.20;85.49
5777;BME280;2914;42.668;23.346;2023-03-04T10:39:33;94407.50;;;9.24;84.67
5777;BME280;2914;42.668;23.346;2023-03-04T10:42:05;94399.81;;;9.26;85.43
5777;BME280;2914;42.668;23.346;2023-03-04T10:44:35;94397.61;;;9.31;84.87
5777;BME280;2914;42.668;23.346;2023-03-04T10:47:09;94396.37;;;9.36;84.78
5777;BME280;2914;42.668;23.346;2023-03-04T10:49:51;94389.78;;;9.45;84.30
5777;BME280;2914;42.668;23.346;2023-03-04T10:52:28;94385.83;;;9.45;84.00
5777;BME280;2914;42.668;23.346;2023-03-04T10:54:58;94374.94;;;9.54;83.79
5777;BME280;2914;42.668;23.346;2023-03-04T10:57:33;94374.94;;;9.54;83.79
5777;BME280;2914;42.668;23.346;2023-03-04T11:00:17;94377.92;;;9.55;83.69
5777;BME280;2914;42.668;23.346;2023-03-04T11:02:43;94375.82;;;9.59;84.14
5777;BME280;2914;42.668;23.346;2023-03-04T11:05:21;94367.74;;;9.56;84.53
5777;BME280;2914;42.668;23.346;2023-03-04T11:07:52;94365.03;;;9.62;84.15
5777;BME280;2914;42.668;23.346;2023-03-04T11:10:24;94356.92;;;9.59;83.48
5777;BME280;2914;42.668;23.346;2023-03-04T11:12:59;94356.92;;;9.59;83.48
5777;BME280;2914;42.668;23.346;2023-03-04T11:15:28;94355.30;;;9.72;83.42
5777;BME280;2914;42.668;23.346;2023-03-04T11:17:59;94355.30;;;9.72;83.42
5777;BME280;2914;42.668;23.346;2023-03-04T11:20:32;94344.61;;;9.74;82.57
5777;BME280;2914;42.668;23.346;2023-03-04T11:25:49;94342.03;;;9.78;82.69
5777;BME280;2914;42.668;23.346;2023-03-04T11:28:21;94336.36;;;9.39;82.52
5777;BME280;2914;42.668;23.346;2023-03-04T11:33:40;94322.92;;;9.52;83.29
5777;BME280;2914;42.668;23.346;2023-03-04T11:36:22;94316.58;;;9.06;85.22
5777;BME280;2914;42.668;23.346;2023-03-04T11:38:51;94314.48;;;8.90;86.45
5777;BME280;2914;42.668;23.346;2023-03-04T11:41:24;94318.09;;;9.18;85.90
5777;BME280;2914;42.668;23.346;2023-03-04T11:43:54;94311.91;;;9.43;84.97
5777;BME280;2914;42.668;23.346;2023-03-04T11:46:51;94308.08;;;9.51;84.70
5777;BME280;2914;42.668;23.346;2023-03-04T11:52:44;94304.25;;;9.59;85.98
5777;BME280;2914;42.668;23.346;2023-03-04T11:58:11;94288.34;;;10.26;100.00
5777;BME280;2914;42.668;23.346;2023-03-04T12:00:42;94300.01;;;10.10;91.41
5777;BME280;2914;42.668;23.346;2023-03-04T12:06:14;94293.59;;;10.12;85.28
5777;BME280;2914;42.668;23.346;2023-03-04T12:09:17;94298.18;;;9.96;83.35
5777;BME280;2914;42.668;23.346;2023-03-04T12:11:50;94278.16;;;9.90;82.70
5777;BME280;2914;42.668;23.346;2023-03-04T12:17:35;94278.47;;;10.00;82.80
5777;BME280;2914;42.668;23.346;2023-03-04T12:20:26;94277.45;;;9.97;82.82
5777;BME280;2914;42.668;23.346;2023-03-04T12:23:01;94274.17;;;9.99;82.49
5777;BME280;2914;42.668;23.346;2023-03-04T12:25:53;94277.05;;;10.06;82.72
5777;BME280;2914;42.668;23.346;2023-03-04T12:31:20;94270.32;;;10.08;83.18
5777;BME280;2914;42.668;23.346;2023-03-04T12:33:57;94268.45;;;9.90;83.00
5777;BME280;2914;42.668;23.346;2023-03-04T12:36:28;94263.17;;;9.90;83.36
5777;BME280;2914;42.668;23.346;2023-03-04T12:39:07;94264.23;;;9.93;83.07
5777;BME280;2914;42.668;23.346;2023-03-04T12:41:42;94258.86;;;9.99;83.27
5777;BME280;2914;42.668;23.346;2023-03-04T12:44:16;94251.97;;;10.16;82.79
5777;BME280;2914;42.668;23.346;2023-03-04T12:49:54;94261.39;;;10.18;81.93
5777;BME280;2914;42.668;23.346;2023-03-04T12:52:31;94242.34;;;10.11;81.42
5777;BME280;2914;42.668;23.346;2023-03-04T12:55:03;94242.34;;;10.11;81.42
5777;BME280;2914;42.668;23.346;2023-03-04T12:57:34;94233.06;;;10.21;81.37
5777;BME280;2914;42.668;23.346;2023-03-04T13:00:13;94235.85;;;10.19;81.22
5777;BME280;2914;42.668;23.346;2023-03-04T13:06:03;94226.48;;;10.07;81.79
5777;BME280;2914;42.668;23.346;2023-03-04T13:08:38;94226.48;;;10.07;81.79
5777;BME280;2914;42.668;23.346;2023-03-04T13:14:35;94224.77;;;9.36;84.66
5777;BME280;2914;42.668;23.346;2023-03-04T13:20:32;94216.20;;;9.72;84.50
5777;BME280;2914;42.668;23.346;2023-03-04T13:23:03;94218.38;;;9.62;83.08
5777;BME280;2914;42.668;23.346;2023-03-04T13:25:39;94218.38;;;9.62;83.08
5777;BME280;2914;42.668;23.346;2023-03-04T13:34:01;94206.38;;;9.78;84.09
5777;BME280;2914;42.668;23.346;2023-03-04T13:37:02;94201.45;;;9.51;84.09
5777;BME280;2914;42.668;23.346;2023-03-04T13:39:35;94208.66;;;9.25;85.34
5777;BME280;2914;42.668;23.346;2023-03-04T13:44:59;94208.33;;;9.38;85.64
5777;BME280;2914;42.668;23.346;2023-03-04T13:47:45;94205.47;;;9.31;85.34
5777;BME280;2914;42.668;23.346;2023-03-04T13:50:28;94205.12;;;9.30;85.69
5777;BME280;2914;42.668;23.346;2023-03-04T13:53:21;94205.12;;;9.30;85.69
5777;BME280;2914;42.668;23.346;2023-03-04T13:56:17;94200.81;;;9.29;85.90
5777;BME280;2914;42.668;23.346;2023-03-04T13:58:43;94184.80;;;9.50;85.59
5777;BME280;2914;42.668;23.346;2023-03-04T14:04:11;94185.95;;;9.62;85.28
5777;BME280;2914;42.668;23.346;2023-03-04T14:09:27;94182.42;;;9.71;84.83
5777;BME280;2914;42.668;23.346;2023-03-04T14:11:59;94179.94;;;9.70;84.59
5777;BME280;2914;42.668;23.346;2023-03-04T14:14:41;94181.91;;;9.54;85.06
5777;BME280;2914;42.668;23.346;2023-03-04T14:17:05;94179.08;;;9.65;85.32
5777;BME280;2914;42.668;23.346;2023-03-04T14:22:25;94173.64;;;9.94;84.79
5777;BME280;2914;42.668;23.346;2023-03-04T14:27:38;94167.88;;;9.77;85.05
5777;BME280;2914;42.668;23.346;2023-03-04T14:32:58;94147.03;;;10.47;100.00
5777;BME280;2914;42.668;23.346;2023-03-04T14:35:28;94140.98;;;11.22;100.00
5777;BME280;2914;42.668;23.346;2023-03-04T14:38:01;94149.45;;;11.07;100.00
5777;BME280;2914;42.668;23.346;2023-03-04T14:40:34;94156.77;;;10.47;85.63
5777;BME280;2914;42.668;23.346;2023-03-04T14:45:43;94155.41;;;10.43;83.84
5777;BME280;2914;42.668;23.346;2023-03-04T14:50:54;94146.97;;;10.39;84.69
5777;BME280;2914;42.668;23.346;2023-03-04T14:53:25;94143.78;;;10.35;83.15
5777;BME280;2914;42.668;23.346;2023-03-04T14:58:52;94140.91;;;10.43;83.06
5777;BME280;2914;42.668;23.346;2023-03-04T15:04:08;94141.48;;;10.55;83.07
5777;BME280;2914;42.668;23.346;2023-03-04T15:09:21;94137.65;;;10.49;84.90
5777;BME280;2914;42.668;23.346;2023-03-04T15:14:47;94129.91;;;9.97;83.43
5777;BME280;2914;42.668;23.346;2023-03-04T15:20:23;94126.64;;;9.85;84.60
5777;BME280;2914;42.668;23.346;2023-03-04T15:22:59;94119.40;;;9.88;84.43
5777;BME280;2914;42.668;23.346;2023-03-04T15:25:29;94112.13;;;9.67;84.61
5777;BME280;2914;42.668;23.346;2023-03-04T15:27:59;94120.31;;;9.78;85.07
5777;BME280;2914;42.668;23.346;2023-03-04T15:30:29;94121.37;;;9.85;84.43
5777;BME280;2914;42.668;23.346;2023-03-04T15:35:37;94108.05;;;9.87;85.92
5777;BME280;2914;42.668;23.346;2023-03-04T15:40:52;94091.38;;;9.82;85.28
5777;BME280;2914;42.668;23.346;2023-03-04T15:45:59;94095.53;;;9.57;86.51
5777;BME280;2914;42.668;23.346;2023-03-04T15:51:13;94097.30;;;9.39;88.10
5777;BME280;2914;42.668;23.346;2023-03-04T15:56:23;94091.45;;;9.73;86.51
5777;BME280;2914;42.668;23.346;2023-03-04T15:58:55;94086.84;;;9.75;86.31
5777;BME280;2914;42.668;23.346;2023-03-04T16:01:24;94088.55;;;9.80;85.98
5777;BME280;2914;42.668;23.346;2023-03-04T16:03:54;94085.80;;;9.85;85.33
5777;BME280;2914;42.668;23.346;2023-03-04T16:06:24;94093.66;;;9.81;85.17
5777;BME280;2914;42.668;23.346;2023-03-04T16:08:55;94093.66;;;9.81;85.17
5777;BME280;2914;42.668;23.346;2023-03-04T16:11:26;94093.34;;;9.66;85.94